Date,TemperatureHighF,TemperatureAvgF,TemperatureLowF,DewpointHighF,DewpointAvgF,DewpointLowF,HumidityHigh,HumidityAvg,HumidityLow,PressureMaxIn,PressureMinIn,WindSpeedMaxMPH,WindSpeedAvgMPH,GustSpeedMaxMPH,PrecipitationSumIn
2013-1-1,54,54,54,12,12,12,18,18,18,29.98,29.80,10,4,15,0.00
2013-1-2,54,54,54,12,12,12,18,18,18,30.15,29.95,10,3,15,0.00
2013-1-3,54,54,54,12,12,12,18,18,18,30.18,30.06,7,2,14,0.00
2013-1-5,54,22,20,12,3,1,47,43,18,30.45,30.21,4,0,4,0.00
2013-1-6,63,36,23,24,13,4,57,40,16,30.21,29.95,7,1,9,0.00
2013-1-7,62,34,16,21,8,-5,63,36,15,30.39,30.01,7,1,13,0.00
2013-1-8,62,37,16,26,13,-2,62,40,16,30.39,30.30,12,2,15,0.00
2013-1-9,62,40,21,35,16,5,68,40,19,30.36,30.06,11,2,16,0.00
2013-1-10,63,41,26,16,9,-1,45,27,15,30.51,30.12,10,3,17,0.00
2013-1-11,58,38,21,43,21,4,89,53,25,30.51,30.15,5,1,10,0.00
2013-1-12,52,47,44,48,43,40,89,87,86,30.18,30.06,6,1,10,0.00
2013-1-13,62,50,42,57,46,38,87,86,85,30.18,30.04,6,1,10,0.00
2013-1-14,62,51,37,58,47,33,88,86,85,30.24,29.95,6,0,11,0.00
2013-1-15,48,40,36,48,39,32,98,96,83,30.30,30.18,5,0,9,0.00
2013-1-16,47,41,35,46,41,34,98,98,96,30.21,29.71,4,0,7,0.00
2013-1-17,57,42,34,56,42,34,98,98,98,30.06,29.86,7,1,12,0.00
2013-1-18,44,27,13,35,14,-5,98,59,41,30.54,29.98,10,3,20,0.00
2013-2-15,54,34,31,20,17,12,60,51,18,30.45,29.95,4,0,4,0.00
2013-2-16,35,34,32,24,21,20,65,60,57,29.95,29.92,2,0,2,0.00
2013-2-17,34,20,17,20,-8,-13,58,26,22,29.83,29.80,12,8,21,0.00
2013-2-18,53,28,16,7,-5,-13,27,23,16,30.24,29.83,13,5,23,0.00
2013-2-19,69,42,18,44,20,-7,91,48,15,30.21,29.62,13,2,17,0.00
2013-2-20,61,36,23,49,14,-11,85,50,7,29.89,29.62,12,6,18,0.00
2013-2-21,59,32,21,10,-2,-8,33,24,14,30.18,29.83,11,5,18,0.00
2013-2-22,71,37,23,19,5,-1,42,27,14,30.36,30.18,10,2,12,0.00
2013-2-23,37,33,25,13,10,2,44,38,33,30.30,30.21,2,0,3,0.00
2013-3-3,30,30,30,9,9,9,41,41,41,30.18,30.18,0,0,0,0.00
2013-3-30,74,50,30,21,12,3,41,24,13,30.18,30.06,6,3,9,0.00
2013-3-31,75,44,22,45,18,3,92,41,13,30.15,29.65,9,2,16,0.00
2013-4-1,80,52,32,56,35,15,92,64,12,29.86,29.59,11,4,14,0.00
2013-4-2,59,35,24,20,13,6,63,44,14,29.95,29.83,12,4,18,0.00
2013-4-20,71,71,71,20,20,20,14,14,14,29.98,29.98,7,7,9,0.00
2013-4-26,42,39,30,19,17,9,43,41,39,32.13,30.18,0,0,18,0.00
2013-4-27,114,63,30,36,25,9,65,33,5,30.45,30.18,5,1,8,0.00
2013-4-28,79,63,43,33,24,12,50,26,13,30.39,30.24,7,2,9,0.00
2013-4-29,66,56,50,29,25,22,43,31,20,30.30,30.24,7,2,10,0.00
2013-5-25,51,50,43,32,30,20,48,46,40,30.39,29.83,7,3,8,0.00
2013-5-26,67,59,43,31,25,22,48,27,23,30.21,29.83,108,3,108,0.00
2013-5-27,83,60,40,33,26,17,68,32,11,30.24,30.18,7,2,12,0.00
2013-5-28,86,61,44,50,37,24,73,47,14,30.30,30.18,6,1,13,0.00
2013-5-29,87,66,57,57,48,42,79,57,23,30.21,30.06,7,2,12,0.00
2013-5-30,106,79,60,54,46,39,68,37,14,30.18,30.12,6,2,11,0.00
2013-5-31,109,81,63,57,45,36,64,34,12,30.21,30.09,7,2,10,0.14
2013-6-1,97,75,64,52,46,41,63,40,17,30.12,30.01,7,3,11,0.00
2013-6-2,87,72,64,54,48,42,69,45,23,30.04,29.89,9,4,18,0.00
2013-6-3,75,66,62,63,55,48,82,69,42,29.95,29.86,7,2,11,0.00
2013-6-4,85,68,51,56,30,24,73,27,13,30.15,29.92,6,2,11,0.00
2013-6-5,91,67,49,42,33,23,71,34,10,30.27,30.12,4,1,6,0.00
2013-6-6,84,64,51,54,42,36,70,48,21,30.21,30.18,4,1,6,0.00
2013-6-14,76,76,76,47,47,47,36,36,36,30.09,30.09,1,0,0,0.00
2013-6-15,76,76,76,47,47,47,36,36,36,30.09,30.09,4,2,4,0.00
2013-6-16,76,76,76,47,47,47,36,36,36,30.09,30.09,2,2,2,0.00
2013-6-22,76,64,63,47,43,42,49,48,36,30.33,30.09,0,0,1,0.00
2013-6-23,73,71,63,59,58,43,66,62,49,30.33,30.15,6,2,7,0.00
2013-6-24,107,82,70,63,53,44,76,42,14,30.15,30.01,6,2,9,0.00
2013-6-25,111,82,66,57,50,43,69,38,13,30.04,29.83,6,1,12,0.00
2013-6-26,96,82,70,58,51,46,61,38,19,29.92,29.83,5,1,9,0.00
2013-6-27,95,77,68,63,54,44,78,49,21,29.92,29.74,4,1,9,0.00
2013-6-28,78,72,70,65,62,54,80,73,47,29.74,29.59,6,2,10,0.00
2013-7-27,101,83,70,56,47,40,60,32,18,30.27,30.04,1,0,2,0.00
2013-7-28,100,77,68,60,52,41,68,45,16,30.09,30.01,0,0,0,0.00
2013-7-29,100,81,67,67,52,40,75,42,16,30.12,30.04,0,0,0,0.00
2013-7-30,80,66,62,53,46,37,66,50,22,30.18,30.09,0,0,0,0.00
2013-8-11,101,101,101,51,51,51,19,19,19,30.27,30.27,1,1,2,0.00
2013-8-14,101,75,66,51,39,34,31,28,19,30.27,30.06,3,1,4,0.00
2013-8-15,66,66,66,34,34,34,31,31,31,30.06,30.06,0,0,0,0.00
2013-8-24,101,59,56,51,33,32,40,39,19,30.39,30.27,1,0,2,0.00
2013-8-31,56,56,56,32,32,32,40,40,40,30.39,30.39,2,2,2,0.00
2013-9-2,76,73,56,58,55,32,54,52,40,30.39,29.86,2,0,2,0.00
2013-9-7,66,65,56,36,35,32,40,33,33,30.39,30.01,2,2,2,0.00
2013-9-8,91,91,90,42,42,40,18,18,18,30.01,29.92,3,1,8,0.00
2013-9-14,85,70,56,37,32,28,40,26,16,30.15,30.01,5,1,8,0.00
2013-9-15,84,62,45,48,33,26,71,38,14,30.24,30.12,5,1,8,0.00
2013-9-16,80,63,54,56,41,29,73,48,21,30.27,30.06,7,1,10,0.00
2013-9-17,76,56,41,28,24,16,54,31,13,30.45,30.24,10,3,16,0.00
2013-9-18,87,58,38,46,28,20,73,39,11,30.39,30.21,4,0,7,0.00
2013-9-19,92,67,49,50,36,26,74,39,12,30.24,30.12,5,1,6,0.00
2013-9-20,95,65,50,54,39,29,75,45,11,30.15,30.06,4,0,8,0.00
2013-9-21,87,66,50,60,46,36,74,52,21,30.09,29.83,7,1,12,0.00
2013-9-22,85,65,56,54,32,24,56,30,16,30.06,29.80,7,3,9,0.00
2013-9-23,79,60,50,30,27,21,43,29,15,30.06,29.95,6,2,11,0.00
2013-9-24,79,61,47,33,28,24,48,31,17,30.06,29.89,6,2,10,0.00
2013-9-25,88,63,44,46,31,23,70,35,10,30.01,29.95,5,1,8,0.00
2013-9-26,76,67,58,45,35,30,58,33,21,30.09,29.98,5,1,6,0.00
2013-9-29,65,65,65,33,33,33,30,30,30,30.06,30.06,1,1,1,0.00
2013-10-13,65,65,65,33,33,33,30,30,30,30.06,30.06,3,3,3,0.00
2013-11-2,59,58,58,45,45,44,61,60,59,30.06,29.65,1,1,1,0.00
2013-11-3,58,48,48,45,17,15,60,28,27,30.27,29.65,1,1,1,0.00
2013-11-22,51,51,48,36,35,15,57,55,27,30.27,30.01,1,1,1,0.00
2013-11-29,51,34,32,36,2,-2,57,26,23,30.69,30.01,1,1,1,0.00
2013-11-30,65,38,29,33,12,2,42,35,21,30.69,30.06,1,1,1,0.00
2013-12-1,67,49,39,46,26,14,65,41,25,30.42,30.06,1,1,1,0.00
2014-1-2,65,35,31,33,22,21,65,61,30,30.15,30.06,1,1,1,0.00